createdAt,value
2019-05-25T00:02:46.043Z,3.30
2019-05-25T00:05:15.315Z,3.07
2019-05-25T00:07:44.621Z,3.20
2019-05-25T00:10:14.038Z,3.63
2019-05-25T00:12:43.334Z,3.40
2019-05-25T00:15:12.748Z,3.27
2019-05-25T00:17:42.058Z,3.23
2019-05-25T00:20:50.683Z,3.47
2019-05-25T00:23:20.043Z,3.00
2019-05-25T00:25:49.349Z,3.10
2019-05-25T00:28:18.688Z,3.53
2019-05-25T00:30:47.982Z,3.33
2019-05-25T00:33:17.291Z,3.80
2019-05-25T00:35:46.600Z,3.50
2019-05-25T00:38:15.936Z,3.17
2019-05-25T00:40:45.250Z,4.27
2019-05-25T00:43:14.554Z,3.90
2019-05-25T00:45:43.882Z,3.80
2019-05-25T00:48:13.184Z,3.57
2019-05-25T00:50:42.495Z,3.40
2019-05-25T00:53:11.815Z,3.23
2019-05-25T00:55:41.145Z,4.00
2019-05-25T00:58:10.466Z,4.03
2019-05-25T01:00:39.778Z,4.60
2019-05-25T01:03:09.084Z,4.97
2019-05-25T01:05:38.415Z,4.70
2019-05-25T01:08:07.706Z,4.40
2019-05-25T01:10:37.034Z,5.17
2019-05-25T01:13:06.339Z,4.90
2019-05-25T01:15:35.646Z,5.00
2019-05-25T01:18:05.071Z,5.40
2019-05-25T01:20:34.367Z,4.97
2019-05-25T01:23:03.693Z,4.73
2019-05-25T01:25:33.018Z,4.60
2019-05-25T01:28:02.324Z,5.20
2019-05-25T01:30:31.641Z,4.47
2019-05-25T01:33:00.937Z,4.27
2019-05-25T01:35:30.249Z,4.90
2019-05-25T01:37:59.551Z,4.87
2019-05-25T01:40:28.851Z,5.13
2019-05-25T01:42:58.190Z,4.50
2019-05-25T01:45:27.485Z,4.77
2019-05-25T01:47:56.791Z,4.60
2019-05-25T01:50:26.101Z,4.50
2019-05-25T01:52:55.420Z,4.77
2019-05-25T01:55:24.734Z,5.03
2019-05-25T01:58:12.973Z,4.77
2019-05-25T02:00:42.313Z,4.23
2019-05-25T02:03:11.613Z,4.97
2019-05-25T02:05:40.948Z,4.80
2019-05-25T02:08:10.255Z,4.83
2019-05-25T02:10:39.579Z,5.27
2019-05-25T02:13:08.881Z,4.83
2019-05-25T02:15:38.210Z,4.50
2019-05-25T02:18:07.529Z,4.23
2019-05-25T02:23:25.114Z,3.83
2019-05-25T02:25:54.474Z,4.33
2019-05-25T02:28:23.777Z,4.57
2019-05-25T02:30:53.092Z,3.77
2019-05-25T02:33:22.415Z,4.40
2019-05-25T02:35:51.735Z,4.53
2019-05-25T02:41:09.393Z,4.60
2019-05-25T02:43:38.695Z,5.47
2019-05-25T02:46:08.018Z,4.30
2019-05-25T02:48:37.318Z,5.07
2019-05-25T02:51:06.611Z,4.43
2019-05-25T02:53:35.934Z,4.53
2019-05-25T02:56:05.295Z,4.47
2019-05-25T02:58:34.599Z,4.93
2019-05-25T03:03:59.485Z,3.90
2019-05-25T03:06:49.223Z,4.10
2019-05-25T03:09:57.844Z,4.33
2019-05-25T03:12:37.746Z,4.20
2019-05-25T03:15:07.423Z,4.00
2019-05-25T03:17:36.779Z,4.77
2019-05-25T03:20:45.678Z,4.40
2019-05-25T03:23:14.985Z,4.70
2019-05-25T03:25:49.502Z,3.83
2019-05-25T03:28:15.379Z,5.03
2019-05-25T03:30:44.648Z,4.37
2019-05-25T03:33:13.970Z,5.53
2019-05-25T03:35:43.305Z,4.40
2019-05-25T03:38:12.669Z,5.27
2019-05-25T03:40:41.989Z,4.63
2019-05-25T03:43:11.287Z,4.70
2019-05-25T03:45:40.609Z,4.97
2019-05-25T03:48:09.914Z,5.40
2019-05-25T03:50:39.217Z,4.63
2019-05-25T03:53:08.551Z,4.50
2019-05-25T03:55:37.866Z,4.70
2019-05-25T03:58:07.178Z,4.20
2019-05-25T04:03:50.880Z,4.43
2019-05-25T04:06:20.231Z,4.33
2019-05-25T04:08:49.495Z,4.23
2019-05-25T04:11:18.870Z,3.87
2019-05-25T04:13:48.201Z,4.40
2019-05-25T04:16:17.513Z,4.00
2019-05-25T04:18:46.816Z,3.90
2019-05-25T04:21:16.114Z,4.00
2019-05-25T04:23:45.425Z,3.30
2019-05-25T04:26:22.463Z,3.73
2019-05-25T04:28:45.765Z,3.57
2019-05-25T04:31:15.088Z,3.60
2019-05-25T04:33:44.370Z,4.00
2019-05-25T04:36:13.723Z,3.90
2019-05-25T04:38:43.051Z,3.13
2019-05-25T04:41:31.358Z,3.43
2019-05-25T04:44:00.663Z,3.50
2019-05-25T04:46:29.971Z,4.00
2019-05-25T04:48:59.297Z,3.27
2019-05-25T04:51:28.605Z,3.20
2019-05-25T04:53:57.927Z,3.93
2019-05-25T04:56:46.115Z,3.87
2019-05-25T04:59:15.458Z,3.67
2019-05-25T05:01:56.215Z,3.53
2019-05-25T05:04:25.601Z,3.37
2019-05-25T05:09:43.206Z,3.50
2019-05-25T05:12:12.510Z,3.73
2019-05-25T05:14:41.872Z,3.30
2019-05-25T05:17:11.222Z,3.37
2019-05-25T05:19:59.568Z,3.30
2019-05-25T05:27:59.208Z,2.83
2019-05-25T05:30:47.564Z,3.03
2019-05-25T05:33:16.872Z,3.10
2019-05-25T05:36:25.481Z,2.90
2019-05-25T05:39:34.120Z,2.57
2019-05-25T05:45:17.738Z,2.80
2019-05-25T05:48:26.382Z,3.10
2019-05-25T05:51:35.007Z,2.70
2019-05-25T05:57:18.517Z,2.50
2019-05-25T05:59:47.812Z,2.22
2019-05-25T06:02:17.132Z,2.53
2019-05-25T06:04:46.438Z,2.70
2019-05-25T06:07:15.763Z,2.37
2019-05-25T06:09:45.117Z,2.87
2019-05-25T06:12:14.437Z,3.05
2019-05-25T06:14:43.805Z,2.87
2019-05-25T06:17:13.095Z,2.10
2019-05-25T06:19:42.395Z,2.97
2019-05-25T06:22:11.723Z,2.77
2019-05-25T06:24:41.025Z,2.53
2019-05-25T06:27:10.341Z,3.12
2019-05-25T06:29:39.668Z,2.25
2019-05-25T06:32:08.996Z,2.87
2019-05-25T06:40:02.182Z,2.90
2019-05-25T06:45:08.331Z,2.58
2019-05-25T06:47:27.108Z,2.42
2019-05-25T06:49:56.435Z,2.65
2019-05-25T06:52:25.746Z,2.33
2019-05-25T06:54:55.119Z,2.62
2019-05-25T06:57:24.424Z,2.85
2019-05-25T07:00:05.945Z,2.60
2019-05-25T07:02:24.799Z,3.00
2019-05-25T07:04:54.176Z,2.70
2019-05-25T07:07:23.515Z,3.10
2019-05-25T07:09:52.873Z,2.90
2019-05-25T07:12:22.228Z,2.60
2019-05-25T07:14:51.644Z,2.83
2019-05-25T07:17:21.020Z,2.47
2019-05-25T07:20:02.312Z,2.87
2019-05-25T07:22:21.372Z,2.37
2019-05-25T07:24:50.712Z,2.80
2019-05-25T07:27:20.134Z,3.10
2019-05-25T07:29:49.453Z,2.98
2019-05-25T07:32:18.798Z,2.92
2019-05-25T07:34:48.345Z,3.00
2019-05-25T07:37:17.656Z,2.60
2019-05-25T07:39:47.096Z,2.70
2019-05-25T07:42:19.807Z,2.67
2019-05-25T07:44:47.436Z,2.58
2019-05-25T07:47:16.778Z,2.45
2019-05-25T07:50:05.049Z,2.67
2019-05-25T07:55:30.452Z,2.75
2019-05-25T07:58:15.864Z,2.85
2019-05-25T08:00:41.666Z,2.52
2019-05-25T08:03:10.997Z,2.25
2019-05-25T08:05:40.369Z,2.42
2019-05-25T08:08:09.687Z,2.67
2019-05-25T08:10:39.043Z,2.62
2019-05-25T08:13:08.368Z,2.77
2019-05-25T08:15:37.700Z,2.62
2019-05-25T08:20:55.349Z,2.52
2019-05-25T08:23:24.676Z,2.20
2019-05-25T08:25:54.111Z,2.95
2019-05-25T08:28:32.142Z,2.50
2019-05-25T08:30:54.466Z,2.67
2019-05-25T08:33:29.421Z,2.55
2019-05-25T08:38:33.972Z,2.22
2019-05-25T08:41:03.319Z,2.12
2019-05-25T08:43:32.681Z,2.50
2019-05-25T08:46:02.014Z,1.95
2019-05-25T08:48:31.376Z,2.37
2019-05-25T08:51:00.786Z,2.00
2019-05-25T08:53:40.751Z,1.92
2019-05-25T08:56:01.246Z,2.17
2019-05-25T08:58:47.489Z,2.25
2019-05-25T09:09:23.662Z,1.80
2019-05-25T09:12:11.937Z,2.10
2019-05-25T09:15:20.578Z,2.10
2019-05-25T09:17:49.911Z,2.17
2019-05-25T09:22:54.036Z,2.10
2019-05-25T09:27:58.368Z,1.98
2019-05-25T09:30:27.824Z,2.37
2019-05-25T09:35:52.450Z,2.30
2019-05-25T09:38:21.914Z,1.90
2019-05-25T09:40:51.311Z,2.20
2019-05-25T09:43:20.746Z,1.98
2019-05-25T09:45:50.089Z,2.20
2019-05-25T09:48:19.453Z,2.00
2019-05-25T09:50:48.828Z,1.82
2019-05-25T09:53:18.133Z,2.08
2019-05-25T09:55:49.904Z,1.80
2019-05-25T09:58:19.265Z,1.87
2019-05-25T10:00:48.671Z,1.92
2019-05-25T10:06:12.102Z,1.82
2019-05-25T10:08:37.474Z,2.02
2019-05-25T10:11:06.837Z,2.33
2019-05-25T10:13:36.172Z,2.30
2019-05-25T10:16:05.569Z,2.87
2019-05-25T10:18:34.912Z,2.92
2019-05-25T10:21:04.231Z,3.35
2019-05-25T10:23:33.547Z,3.50
2019-05-25T10:26:02.891Z,3.30
2019-05-25T10:28:51.262Z,4.20
2019-05-25T10:31:20.579Z,3.45
2019-05-25T10:33:49.909Z,3.83
2019-05-25T10:36:19.220Z,3.72
2019-05-25T10:38:48.546Z,3.60
2019-05-25T10:41:17.931Z,2.92
2019-05-25T10:43:47.320Z,3.00
2019-05-25T10:46:16.649Z,2.70
2019-05-25T10:48:45.971Z,3.15
2019-05-25T10:51:15.338Z,3.40
2019-05-25T10:53:44.666Z,3.22
2019-05-25T10:56:14.001Z,3.08
2019-05-25T10:59:02.374Z,3.08
2019-05-25T11:01:31.765Z,3.75
2019-05-25T11:04:01.076Z,2.72
2019-05-25T11:09:45.294Z,3.22
2019-05-25T11:12:14.618Z,2.92
2019-05-25T11:14:44.034Z,3.55
2019-05-25T11:17:13.345Z,2.87
2019-05-25T11:19:42.704Z,3.47
2019-05-25T11:22:12.031Z,2.83
2019-05-25T11:24:41.447Z,2.47
2019-05-25T11:27:10.753Z,2.72
2019-05-25T11:29:40.074Z,2.60
2019-05-25T11:32:09.437Z,2.37
2019-05-25T11:34:38.831Z,2.60
2019-05-25T11:37:08.171Z,2.50
2019-05-25T11:39:37.564Z,2.45
2019-05-25T11:42:06.889Z,2.80
2019-05-25T11:44:36.222Z,2.87
2019-05-25T11:47:05.534Z,2.67
2019-05-25T11:49:34.871Z,2.20
2019-05-25T11:52:23.079Z,2.33
2019-05-25T11:57:32.869Z,2.30
2019-05-25T12:00:02.182Z,2.40
2019-05-25T12:02:31.534Z,2.75
2019-05-25T12:05:15.149Z,3.00
2019-05-25T12:07:34.030Z,2.47
2019-05-25T12:10:23.755Z,2.55
2019-05-25T12:12:53.156Z,2.08
2019-05-25T12:15:25.471Z,2.20
2019-05-25T12:17:54.886Z,2.00
2019-05-25T12:20:24.298Z,2.20
2019-05-25T12:22:53.670Z,2.60
2019-05-25T12:25:23.142Z,2.37
2019-05-25T12:27:55.428Z,2.05
2019-05-25T12:31:06.398Z,2.35
2019-05-25T12:39:46.385Z,2.52
2019-05-25T12:42:15.725Z,2.30
2019-05-25T12:47:23.207Z,2.10
2019-05-25T12:49:52.548Z,1.90
2019-05-25T12:52:21.953Z,2.58
2019-05-25T12:54:51.351Z,1.95
2019-05-25T12:57:59.991Z,1.70
2019-05-25T13:00:29.396Z,2.05
2019-05-25T13:02:59.616Z,2.10
2019-05-25T13:05:34.269Z,2.02
2019-05-25T13:08:00.953Z,1.67
2019-05-25T13:10:30.319Z,1.90
2019-05-25T13:13:02.039Z,1.82
2019-05-25T13:15:30.739Z,2.10
2019-05-25T13:18:00.094Z,1.98
2019-05-25T13:20:29.422Z,1.47
2019-05-25T13:22:58.744Z,1.62
2019-05-25T13:25:28.360Z,1.52
2019-05-25T13:27:57.707Z,1.70
2019-05-25T13:30:27.066Z,1.80
2019-05-25T13:32:56.483Z,1.50
2019-05-25T13:35:25.796Z,1.85
2019-05-25T13:37:55.148Z,1.27
2019-05-25T13:40:24.482Z,1.40
2019-05-25T13:42:53.810Z,1.40
2019-05-25T13:45:23.140Z,1.05
2019-05-25T13:47:52.475Z,1.25
2019-05-25T13:50:21.858Z,1.10
2019-05-25T13:52:51.185Z,0.90
2019-05-25T13:55:20.524Z,1.10
2019-05-25T13:57:49.880Z,1.15
2019-05-25T14:00:19.295Z,1.27
2019-05-25T14:02:48.602Z,1.50
2019-05-25T14:05:36.987Z,1.10
2019-05-25T14:08:25.781Z,1.10
2019-05-25T14:10:55.083Z,1.20
2019-05-25T14:13:43.365Z,1.22
2019-05-25T14:16:12.725Z,1.10
2019-05-25T14:18:42.085Z,1.20
2019-05-25T14:23:46.520Z,1.40
2019-05-25T14:26:16.147Z,1.37
2019-05-25T14:28:45.534Z,1.57
2019-05-25T14:31:14.850Z,1.60
2019-05-25T14:33:44.197Z,1.10
2019-05-25T14:36:13.525Z,1.40
2019-05-25T14:38:42.895Z,1.55
2019-05-25T14:41:12.308Z,1.40
2019-05-25T14:43:41.634Z,1.27
2019-05-25T14:46:26.623Z,1.37
2019-05-25T14:48:54.596Z,1.37
2019-05-25T14:51:13.252Z,1.62
2019-05-25T14:53:42.565Z,1.47
2019-05-25T14:56:11.894Z,1.55
2019-05-25T14:58:41.280Z,1.30
2019-05-25T15:01:10.602Z,1.50
2019-05-25T15:03:39.914Z,1.70
2019-05-25T15:06:09.272Z,1.67
2019-05-25T15:08:38.602Z,1.42
2019-05-25T15:11:07.950Z,1.60
2019-05-25T15:13:37.346Z,1.42
2019-05-25T15:16:25.202Z,1.67
2019-05-25T15:18:54.542Z,1.60
2019-05-25T15:21:24.153Z,1.65
2019-05-25T15:23:53.511Z,1.52
2019-05-25T15:26:22.845Z,1.50
2019-05-25T15:28:52.376Z,1.55
2019-05-25T15:31:21.711Z,1.75
2019-05-25T15:33:51.022Z,1.25
2019-05-25T15:36:20.426Z,1.85
2019-05-25T15:38:49.812Z,1.12
2019-05-25T15:41:19.193Z,1.40
2019-05-25T15:43:48.511Z,1.10
2019-05-25T15:46:17.813Z,1.37
2019-05-25T15:51:35.465Z,1.50
2019-05-25T15:54:04.797Z,1.40
2019-05-25T15:56:34.106Z,1.42
2019-05-25T15:59:03.426Z,1.42
2019-05-25T16:01:32.716Z,1.40
2019-05-25T16:04:02.045Z,1.50
2019-05-25T16:06:31.356Z,1.77
2019-05-25T16:09:00.784Z,1.42
2019-05-25T16:11:32.169Z,1.30
2019-05-25T16:14:01.195Z,1.65
2019-05-25T16:16:30.525Z,1.50
2019-05-25T16:18:59.861Z,1.75
2019-05-25T16:24:03.775Z,1.20
2019-05-25T16:26:45.672Z,1.60
2019-05-25T16:29:04.142Z,1.35
2019-05-25T16:31:33.480Z,1.15
2019-05-25T16:34:02.781Z,1.60
2019-05-25T16:36:32.129Z,1.30
2019-05-25T16:39:01.439Z,1.40
2019-05-25T16:41:30.796Z,1.70
2019-05-25T16:44:00.097Z,1.57
2019-05-25T16:46:29.429Z,1.30
2019-05-25T16:48:58.762Z,1.42
2019-05-25T16:54:16.410Z,1.37
2019-05-25T16:56:45.779Z,1.62
2019-05-25T16:59:15.131Z,1.30
2019-05-25T17:01:48.559Z,1.17
2019-05-25T17:04:15.520Z,1.60
2019-05-25T17:06:44.879Z,1.52
2019-05-25T17:12:02.463Z,1.10
2019-05-25T17:14:31.826Z,0.90
2019-05-25T17:17:13.155Z,1.20
2019-05-25T17:19:32.173Z,1.40
2019-05-25T17:22:01.473Z,0.80
2019-05-25T17:24:30.879Z,0.95
2019-05-25T17:27:00.185Z,1.00
2019-05-25T17:29:29.480Z,0.80
2019-05-25T17:31:58.814Z,0.80
2019-05-25T17:34:28.102Z,1.02
2019-05-25T17:36:57.432Z,1.30
2019-05-25T17:39:26.761Z,0.93
2019-05-25T17:41:57.827Z,0.77
2019-05-25T17:47:01.685Z,1.70
2019-05-25T17:49:30.987Z,1.03
2019-05-25T17:52:00.343Z,1.03
2019-05-25T17:54:29.651Z,1.10
2019-05-25T17:56:58.943Z,0.80
2019-05-25T18:02:16.560Z,0.80
2019-05-25T18:04:45.918Z,1.05
2019-05-25T18:07:15.282Z,0.80
2019-05-25T18:09:44.623Z,0.80
2019-05-25T18:12:14.087Z,0.70
2019-05-25T18:14:43.424Z,0.70
2019-05-25T18:20:22.195Z,0.80
2019-05-25T18:22:51.697Z,1.03
2019-05-25T18:25:22.020Z,1.00
2019-05-25T18:27:51.373Z,0.97
2019-05-25T18:31:00.075Z,0.83
2019-05-25T18:36:04.056Z,0.75
2019-05-25T18:38:33.402Z,1.10
2019-05-25T18:41:02.702Z,0.80
2019-05-25T18:46:08.181Z,0.90
2019-05-25T18:48:37.631Z,0.73
2019-05-25T18:51:06.948Z,0.87
2019-05-25T18:53:36.444Z,1.10
2019-05-25T18:56:05.903Z,0.70
2019-05-25T18:58:35.189Z,0.80
2019-05-25T19:01:04.517Z,0.80
2019-05-25T19:03:33.896Z,0.80
2019-05-25T19:06:03.189Z,1.00
2019-05-25T19:11:07.013Z,1.03
2019-05-25T19:13:36.340Z,0.90
2019-05-25T19:16:08.678Z,0.97
2019-05-25T19:18:38.078Z,0.70
2019-05-25T19:21:07.408Z,1.03
2019-05-25T19:23:36.746Z,0.70
2019-05-25T19:26:06.070Z,0.97
2019-05-25T19:28:35.440Z,0.70
2019-05-25T19:31:04.753Z,0.87
2019-05-25T19:33:34.058Z,0.90
2019-05-25T19:36:03.440Z,1.10
2019-05-25T19:38:32.748Z,0.90
2019-05-25T19:41:02.085Z,0.80
2019-05-25T19:43:31.425Z,1.13
2019-05-25T19:46:00.750Z,1.07
2019-05-25T19:48:30.067Z,0.60
2019-05-25T19:50:59.373Z,0.90
2019-05-25T19:53:28.686Z,1.13
2019-05-25T19:55:58.000Z,0.83
2019-05-25T19:58:27.304Z,0.80
2019-05-25T20:00:56.621Z,0.83
2019-05-25T20:03:25.982Z,0.87
2019-05-25T20:05:55.284Z,0.60
2019-05-25T20:08:24.592Z,0.87
2019-05-25T20:10:55.599Z,0.70
2019-05-25T20:13:24.902Z,0.90
2019-05-25T20:15:54.219Z,0.70
2019-05-25T20:18:23.532Z,0.70
2019-05-25T20:20:52.880Z,0.73
2019-05-25T20:23:22.217Z,0.70
2019-05-25T20:25:51.527Z,0.80
2019-05-25T20:28:20.890Z,0.90
2019-05-25T20:30:50.196Z,1.03
2019-05-25T20:33:27.509Z,0.80
2019-05-25T20:35:50.546Z,1.10
2019-05-25T20:38:19.854Z,0.90
2019-05-25T20:40:49.192Z,1.10
2019-05-25T20:43:18.489Z,1.00
2019-05-25T20:45:47.816Z,0.90
2019-05-25T20:48:17.133Z,1.47
2019-05-25T20:51:05.485Z,1.17
2019-05-25T20:53:34.801Z,0.97
2019-05-25T20:56:04.116Z,0.97
2019-05-25T20:58:33.431Z,0.73
2019-05-25T21:01:02.856Z,0.70
2019-05-25T21:03:32.179Z,0.97
2019-05-25T21:06:01.483Z,0.90
2019-05-25T21:08:30.805Z,0.70
2019-05-25T21:11:00.144Z,0.70
2019-05-25T21:13:29.474Z,0.90
2019-05-25T21:15:58.978Z,1.20
2019-05-25T21:18:28.294Z,0.83
2019-05-25T21:20:57.615Z,1.20
2019-05-25T21:23:26.962Z,0.90
2019-05-25T21:25:56.276Z,0.80
2019-05-25T21:28:25.576Z,1.40
2019-05-25T21:30:54.871Z,1.00
2019-05-25T21:33:24.206Z,1.10
2019-05-25T21:36:07.593Z,1.07
2019-05-25T21:38:24.528Z,0.97
2019-05-25T21:40:53.837Z,1.30
2019-05-25T21:43:23.162Z,1.13
2019-05-25T21:45:52.464Z,1.17
2019-05-25T21:48:21.748Z,1.10
2019-05-25T21:50:51.056Z,0.90
2019-05-25T21:53:20.388Z,1.20
2019-05-25T21:55:49.740Z,0.90
2019-05-25T21:58:19.130Z,1.00
2019-05-25T22:03:57.119Z,1.37
2019-05-25T22:06:45.392Z,1.43
2019-05-25T22:09:14.695Z,1.10
2019-05-25T22:11:44.061Z,1.40
2019-05-25T22:14:13.366Z,1.17
2019-05-25T22:16:42.672Z,1.17
2019-05-25T22:19:11.978Z,1.20
2019-05-25T22:21:41.268Z,1.00
2019-05-25T22:26:45.942Z,1.50
2019-05-25T22:29:15.267Z,1.23
2019-05-25T22:31:46.680Z,0.90
2019-05-25T22:34:15.969Z,1.43
2019-05-25T22:36:45.303Z,1.30
2019-05-25T22:39:14.648Z,1.00
2019-05-25T22:41:43.946Z,1.10
2019-05-25T22:44:13.252Z,0.70
2019-05-25T22:49:18.611Z,0.80
2019-05-25T22:51:47.920Z,1.20
2019-05-25T22:54:17.580Z,0.70
2019-05-25T22:56:46.896Z,0.70
2019-05-25T22:59:16.194Z,0.83
2019-05-25T23:01:45.477Z,0.83
2019-05-25T23:04:14.812Z,0.60
2019-05-25T23:06:57.216Z,0.87
2019-05-25T23:09:15.147Z,0.90
2019-05-25T23:11:44.528Z,0.90
2019-05-25T23:14:13.779Z,1.17
2019-05-25T23:16:43.093Z,0.97
2019-05-25T23:19:12.393Z,0.97
2019-05-25T23:21:41.679Z,0.93
2019-05-25T23:24:10.979Z,0.93
2019-05-25T23:26:40.279Z,1.10
2019-05-25T23:29:09.591Z,1.33
2019-05-25T23:31:38.878Z,1.10
2019-05-25T23:34:27.129Z,1.37
2019-05-25T23:37:11.697Z,0.80
2019-05-25T23:39:27.448Z,1.20
2019-05-25T23:41:56.725Z,1.07
2019-05-25T23:44:26.021Z,1.30
2019-05-25T23:46:55.341Z,1.37
2019-05-25T23:49:24.631Z,1.20
2019-05-25T23:51:53.935Z,1.37
2019-05-25T23:54:23.244Z,1.00
2019-05-25T23:56:52.559Z,1.30
2019-05-25T23:59:21.895Z,1.13
